X  Fermer Données météorologiques d'aviation de Metar     EHKD De Kooy Airport
Température
43°F Température
39°F Point de rosée
87% Humidité



Vent
3 MPH
5 KM/H
1 M/S
3 KTS



80°
E
Conditions actuelles

Partiellement nuageux Partiellement nuageux
Pression 998.98 (hPa) - 29.5 (inHg)
Visibilité 6 (mile) - 9.7 (km)
Aéroport
Code de l'aéroport EHKD

Emplacement: De Kooy Airport
Distance: 34 (mi)

Metar:
EHKD 250925Z AUTO 08003KT 9999 FEW007 SCT008 OVC009 06/04 Q0999 GRN TEMPO SCT007 BKN012

Temps: 25-02-2024 10:25 CET